createdAt,value
2017-10-13T00:01:13.183Z,1.87
2017-10-13T00:04:38.545Z,2.57
2017-10-13T00:08:04.067Z,1.90
2017-10-13T00:11:29.480Z,1.77
2017-10-13T00:14:56.522Z,2.00
2017-10-13T00:18:21.781Z,1.80
2017-10-13T00:21:47.665Z,1.87
2017-10-13T00:25:13.413Z,2.93
2017-10-13T00:28:38.801Z,2.20
2017-10-13T00:32:05.972Z,2.60
2017-10-13T00:35:31.375Z,1.83
2017-10-13T00:38:56.880Z,1.70
2017-10-13T00:42:22.605Z,1.80
2017-10-13T00:45:48.048Z,2.30
2017-10-13T00:49:13.461Z,2.00
2017-10-13T00:52:39.492Z,1.77
2017-10-13T00:56:05.459Z,2.40
2017-10-13T00:59:33.137Z,1.50
2017-10-13T01:02:59.426Z,2.47
2017-10-13T01:06:25.002Z,2.17
2017-10-13T01:09:50.597Z,1.60
2017-10-13T01:13:16.512Z,2.00
2017-10-13T01:16:42.820Z,2.10
2017-10-13T01:20:09.013Z,1.80
2017-10-13T01:23:35.413Z,1.80
2017-10-13T01:27:01.443Z,2.40
2017-10-13T01:30:28.476Z,2.63
2017-10-13T01:33:54.275Z,1.97
2017-10-13T01:37:19.913Z,2.03
2017-10-13T01:40:46.089Z,2.40
2017-10-13T01:44:11.842Z,1.77
2017-10-13T01:47:37.212Z,1.77
2017-10-13T01:51:03.045Z,2.20
2017-10-13T01:54:28.549Z,1.77
2017-10-13T01:57:53.883Z,2.13
2017-10-13T02:01:21.056Z,2.70
2017-10-13T02:04:46.753Z,1.73
2017-10-13T02:08:12.798Z,1.90
2017-10-13T02:11:38.138Z,2.00
2017-10-13T02:15:03.949Z,1.90
2017-10-13T02:18:29.439Z,1.83
2017-10-13T02:21:56.560Z,2.60
2017-10-13T02:25:22.055Z,2.00
2017-10-13T02:28:47.657Z,1.77
2017-10-13T02:32:13.313Z,1.90
2017-10-13T02:35:39.332Z,2.43
2017-10-13T02:39:05.132Z,2.27
2017-10-13T02:42:31.341Z,1.87
2017-10-13T02:45:56.769Z,2.43
2017-10-13T02:49:22.173Z,1.83
2017-10-13T02:52:48.851Z,2.97
2017-10-13T02:56:14.497Z,2.60
2017-10-13T02:59:39.875Z,2.40
2017-10-13T03:03:07.581Z,2.40
2017-10-13T03:06:33.038Z,3.03
2017-10-13T03:09:58.380Z,2.80
2017-10-13T03:13:23.865Z,1.93
2017-10-13T03:16:49.204Z,2.40
2017-10-13T03:20:16.081Z,2.67
2017-10-13T03:23:41.838Z,2.40
2017-10-13T03:27:08.405Z,2.43
2017-10-13T03:30:33.946Z,2.50
2017-10-13T03:33:59.553Z,2.67
2017-10-13T03:37:25.306Z,2.43
2017-10-13T03:40:50.605Z,2.40
2017-10-13T03:44:16.569Z,2.60
2017-10-13T03:47:42.224Z,3.00
2017-10-13T03:51:07.925Z,2.23
2017-10-13T03:54:33.293Z,3.07
2017-10-13T03:57:59.414Z,2.53
2017-10-13T04:01:25.000Z,2.87
2017-10-13T04:04:50.628Z,2.30
2017-10-13T04:11:51.598Z,4.00
2017-10-13T04:15:17.065Z,3.00
2017-10-13T04:18:42.916Z,2.63
2017-10-13T04:22:08.276Z,2.87
2017-10-13T04:25:33.575Z,2.40
2017-10-13T04:28:59.546Z,2.07
2017-10-13T04:32:25.301Z,2.40
2017-10-13T04:35:50.561Z,2.90
2017-10-13T04:39:16.050Z,2.50
2017-10-13T04:42:41.472Z,3.43
2017-10-13T04:46:07.320Z,2.33
2017-10-13T04:49:32.640Z,2.10
2017-10-13T04:52:58.060Z,2.43
2017-10-13T04:56:24.797Z,2.40
2017-10-13T04:59:49.873Z,2.37
2017-10-13T05:03:14.928Z,2.10
2017-10-13T05:06:41.472Z,2.43
2017-10-13T05:10:07.465Z,2.47
2017-10-13T05:13:37.440Z,3.03
2017-10-13T05:17:02.599Z,2.33
2017-10-13T05:24:03.465Z,2.60
2017-10-13T05:27:28.658Z,2.67
2017-10-13T05:30:56.194Z,2.90
2017-10-13T05:34:25.970Z,2.87
2017-10-13T05:37:57.406Z,2.47
2017-10-13T05:41:23.415Z,3.07
2017-10-13T05:44:52.073Z,2.30
2017-10-13T05:48:21.575Z,2.30
2017-10-13T05:51:46.637Z,3.40
2017-10-13T05:55:12.129Z,2.33
2017-10-13T05:58:46.530Z,2.50
2017-10-13T06:02:12.842Z,2.30
2017-10-13T06:05:38.565Z,2.87
2017-10-13T06:09:04.873Z,2.57
2017-10-13T06:12:29.994Z,2.30
2017-10-13T06:15:55.693Z,2.93
2017-10-13T06:19:21.884Z,2.13
2017-10-13T06:22:48.328Z,2.63
2017-10-13T06:26:13.760Z,2.83
2017-10-13T06:33:15.633Z,2.60
2017-10-13T06:36:41.336Z,2.10
2017-10-13T06:40:07.332Z,2.27
2017-10-13T06:43:33.491Z,2.57
2017-10-13T06:46:59.012Z,2.20
2017-10-13T06:50:24.586Z,2.47
2017-10-13T06:53:51.014Z,2.53
2017-10-13T06:57:16.709Z,2.33
2017-10-13T07:00:42.875Z,4.10
2017-10-13T07:04:07.985Z,2.50
2017-10-13T07:07:34.856Z,2.47
2017-10-13T07:11:02.027Z,2.53
2017-10-13T07:14:28.419Z,3.00
2017-10-13T07:18:00.665Z,2.70
2017-10-13T07:21:26.827Z,2.40
2017-10-13T07:24:52.685Z,2.30
2017-10-13T07:28:20.568Z,2.37
2017-10-13T07:31:46.117Z,2.20
2017-10-13T07:35:11.799Z,1.93
2017-10-13T07:38:42.889Z,2.70
2017-10-13T07:42:12.527Z,2.40
2017-10-13T07:45:38.414Z,3.33
2017-10-13T07:49:05.556Z,2.90
2017-10-13T07:52:32.142Z,2.50
2017-10-13T07:55:57.407Z,2.67
2017-10-13T07:59:25.281Z,1.90
2017-10-13T08:06:20.204Z,2.80
2017-10-13T08:09:46.176Z,2.53
2017-10-13T08:13:11.822Z,2.70
2017-10-13T08:16:37.205Z,2.67
2017-10-13T08:23:38.189Z,2.57
2017-10-13T08:27:10.717Z,3.67
2017-10-13T08:30:37.021Z,2.63
2017-10-13T08:34:02.238Z,2.63
2017-10-13T08:37:29.241Z,3.53
2017-10-13T08:40:55.570Z,2.93
2017-10-13T08:44:21.331Z,2.80
2017-10-13T08:47:46.411Z,2.53
2017-10-13T08:51:12.267Z,2.20
2017-10-13T08:54:37.817Z,2.50
2017-10-13T08:58:04.061Z,2.30
2017-10-13T09:05:01.030Z,2.70
2017-10-13T09:08:31.437Z,2.60
2017-10-13T09:11:56.877Z,2.90
2017-10-13T09:15:22.789Z,2.53
2017-10-13T09:18:47.972Z,2.60
2017-10-13T09:22:14.197Z,2.37
2017-10-13T09:25:39.629Z,2.40
2017-10-13T09:29:09.880Z,2.70
2017-10-13T09:36:05.217Z,3.43
2017-10-13T09:39:31.973Z,2.40
2017-10-13T09:43:01.258Z,2.50
2017-10-13T09:46:26.401Z,3.27
2017-10-13T09:53:46.833Z,2.57
2017-10-13T09:57:21.238Z,2.33
2017-10-13T10:00:46.991Z,2.93
2017-10-13T10:04:14.774Z,2.27
2017-10-13T10:07:41.227Z,2.30
2017-10-13T10:11:07.114Z,3.60
2017-10-13T10:14:32.332Z,2.33
2017-10-13T10:17:57.443Z,2.67
2017-10-13T10:21:22.516Z,2.30
2017-10-13T10:24:48.221Z,2.90
2017-10-13T10:28:14.110Z,2.50
2017-10-13T10:31:40.716Z,2.27
2017-10-13T10:35:08.855Z,2.67
2017-10-13T10:38:38.093Z,2.40
2017-10-13T10:42:12.473Z,2.70
2017-10-13T10:45:37.897Z,2.40
2017-10-13T10:49:04.830Z,2.50
2017-10-13T10:52:40.586Z,1.97
2017-10-13T10:56:05.837Z,2.20
2017-10-13T10:59:31.389Z,2.50
2017-10-13T11:02:57.274Z,2.93
2017-10-13T11:06:27.083Z,2.60
2017-10-13T11:09:52.296Z,3.03
2017-10-13T11:13:18.320Z,2.27
2017-10-13T11:16:45.838Z,1.90
2017-10-13T11:20:14.868Z,1.90
2017-10-13T11:23:41.351Z,2.50
2017-10-13T11:27:06.804Z,2.10
2017-10-13T11:30:37.036Z,1.90
2017-10-13T11:34:06.552Z,2.57
2017-10-13T11:37:32.004Z,2.17
2017-10-13T11:40:58.956Z,2.10
2017-10-13T11:44:24.026Z,2.23
2017-10-13T11:47:50.341Z,2.37
2017-10-13T11:51:15.666Z,2.47
2017-10-13T11:54:41.009Z,2.33
2017-10-13T11:58:06.962Z,2.33
2017-10-13T12:01:32.191Z,2.00
2017-10-13T12:04:57.329Z,2.50
2017-10-13T12:08:22.916Z,2.33
2017-10-13T12:11:48.535Z,2.20
2017-10-13T12:15:14.618Z,2.70
2017-10-13T12:18:44.626Z,2.30
2017-10-13T12:22:09.946Z,2.23
2017-10-13T12:25:36.891Z,2.20
2017-10-13T12:29:02.073Z,2.37
2017-10-13T12:32:27.479Z,2.10
2017-10-13T12:35:52.921Z,2.27
2017-10-13T12:39:30.396Z,2.10
2017-10-13T12:42:59.937Z,2.03
2017-10-13T12:46:25.738Z,2.40
2017-10-13T12:49:51.003Z,2.30
2017-10-13T12:53:22.193Z,2.60
2017-10-13T12:56:47.664Z,2.10
2017-10-13T13:00:16.819Z,2.80
2017-10-13T13:03:42.667Z,2.07
2017-10-13T13:07:08.428Z,2.73
2017-10-13T13:10:34.025Z,2.17
2017-10-13T13:13:59.350Z,2.40
2017-10-13T13:24:31.824Z,2.90
2017-10-13T13:27:59.765Z,2.40
2017-10-13T13:31:37.453Z,1.90
2017-10-13T13:35:06.307Z,2.40
2017-10-13T13:38:40.865Z,1.80
2017-10-13T13:42:06.375Z,2.57
2017-10-13T13:45:32.442Z,2.30
2017-10-13T13:49:02.810Z,2.67
2017-10-13T13:52:37.258Z,3.10
2017-10-13T13:56:04.529Z,2.87
2017-10-13T13:59:30.486Z,3.00
2017-10-13T14:02:57.253Z,3.33
2017-10-13T14:06:22.382Z,3.70
2017-10-13T14:09:49.312Z,2.40
2017-10-13T14:13:19.104Z,2.30
2017-10-13T14:16:45.221Z,3.73
2017-10-13T14:20:10.721Z,2.90
2017-10-13T14:23:36.828Z,3.20
2017-10-13T14:27:03.632Z,2.77
2017-10-13T14:30:29.231Z,2.30
2017-10-13T14:34:05.985Z,2.70
2017-10-13T14:37:41.489Z,3.17
2017-10-13T14:41:10.863Z,3.50
2017-10-13T14:44:37.546Z,3.43
2017-10-13T14:48:03.935Z,2.50
2017-10-13T14:51:37.094Z,3.20
2017-10-13T14:55:12.644Z,3.07
2017-10-13T14:58:38.731Z,2.43
2017-10-13T15:02:10.729Z,2.33
2017-10-13T15:09:05.981Z,2.97
2017-10-13T15:12:33.379Z,2.40
2017-10-13T15:16:02.921Z,2.47
2017-10-13T15:23:02.989Z,2.70
2017-10-13T15:26:32.738Z,2.53
2017-10-13T15:31:01.632Z,2.93
2017-10-13T15:36:35.227Z,2.57
2017-10-13T15:42:08.237Z,2.47
2017-10-13T15:45:48.339Z,2.20
2017-10-13T15:49:18.045Z,2.60
2017-10-13T15:52:43.237Z,2.63
2017-10-13T15:56:10.073Z,2.30
2017-10-13T15:59:35.914Z,2.43
2017-10-13T16:03:03.445Z,2.90
2017-10-13T16:06:30.281Z,2.93
2017-10-13T16:09:59.027Z,3.10
2017-10-13T16:13:25.353Z,2.90
2017-10-13T16:16:51.205Z,2.73
2017-10-13T16:20:29.464Z,2.50
2017-10-13T16:23:54.722Z,3.10
2017-10-13T16:27:21.426Z,3.00
2017-10-13T16:30:47.453Z,2.50
2017-10-13T16:34:17.943Z,3.00
2017-10-13T16:37:43.423Z,2.70
2017-10-13T16:41:13.303Z,2.80
2017-10-13T16:44:38.848Z,2.90
2017-10-13T16:48:05.370Z,3.33
2017-10-13T16:51:31.043Z,2.47
2017-10-13T16:55:01.445Z,2.40
2017-10-13T16:58:27.941Z,2.77
2017-10-13T17:01:58.450Z,2.13
2017-10-13T17:05:27.704Z,2.40
2017-10-13T17:08:59.433Z,2.43
2017-10-13T17:12:26.374Z,2.40
2017-10-13T17:15:53.658Z,2.57
2017-10-13T17:19:18.848Z,2.10
2017-10-13T17:22:44.654Z,2.23
2017-10-13T17:26:10.615Z,2.30
2017-10-13T17:29:35.770Z,2.70
2017-10-13T17:33:07.085Z,2.10
2017-10-13T17:36:32.261Z,2.40
2017-10-13T17:39:58.630Z,2.53
2017-10-13T17:43:25.162Z,2.70
2017-10-13T17:46:50.859Z,2.63
2017-10-13T17:50:16.621Z,2.10
2017-10-13T17:53:42.108Z,2.47
2017-10-13T17:57:12.118Z,2.17
2017-10-13T18:00:38.295Z,2.40
2017-10-13T18:04:07.103Z,2.17
2017-10-13T18:07:33.123Z,2.13
2017-10-13T18:10:58.439Z,2.40
2017-10-13T18:14:42.675Z,1.90
2017-10-13T18:18:08.416Z,2.13
2017-10-13T18:21:34.385Z,2.60
2017-10-13T18:25:00.210Z,2.73
2017-10-13T18:28:29.619Z,2.87
2017-10-13T18:32:02.440Z,2.53
2017-10-13T18:35:27.933Z,2.50
2017-10-13T18:38:54.581Z,2.93
2017-10-13T18:42:20.446Z,2.60
2017-10-13T18:45:46.383Z,2.53
2017-10-13T18:53:04.579Z,2.67
2017-10-13T18:56:30.328Z,2.33
2017-10-13T18:59:55.954Z,2.60
2017-10-13T19:03:22.052Z,2.87
2017-10-13T19:06:47.871Z,38.73
2017-10-13T19:10:13.289Z,32.47
2017-10-13T19:13:42.116Z,25.90
2017-10-13T19:17:08.383Z,23.47
2017-10-13T19:20:35.277Z,21.33
2017-10-13T19:24:01.056Z,16.50
2017-10-13T19:27:27.466Z,14.87
2017-10-13T19:30:53.262Z,15.87
2017-10-13T19:34:18.870Z,14.47
2017-10-13T19:37:44.520Z,14.60
2017-10-13T19:41:10.325Z,12.53
2017-10-13T19:44:36.268Z,12.73
2017-10-13T19:48:01.663Z,11.90
2017-10-13T19:51:27.394Z,10.90
2017-10-13T19:54:52.898Z,10.40
2017-10-13T19:58:18.458Z,10.17
2017-10-13T20:01:44.255Z,10.83
2017-10-13T20:05:09.930Z,8.10
2017-10-13T20:08:35.510Z,8.67
2017-10-13T20:12:01.351Z,8.60
2017-10-13T20:15:26.774Z,8.30
2017-10-13T20:18:54.872Z,8.80
2017-10-13T20:22:20.737Z,7.53
2017-10-13T20:25:50.516Z,7.73
2017-10-13T20:29:16.096Z,7.70
2017-10-13T20:32:41.643Z,7.20
2017-10-13T20:36:07.224Z,6.83
2017-10-13T20:39:33.386Z,6.00
2017-10-13T20:42:59.290Z,6.70
2017-10-13T20:46:27.543Z,6.20
2017-10-13T20:49:53.384Z,5.50
2017-10-13T20:53:19.212Z,5.90
2017-10-13T20:56:44.813Z,5.67
2017-10-13T21:00:10.588Z,4.90
2017-10-13T21:03:37.394Z,5.13
2017-10-13T21:07:07.413Z,5.90
2017-10-13T21:10:37.891Z,4.70
2017-10-13T21:14:03.300Z,5.00
2017-10-13T21:17:28.846Z,5.27
2017-10-13T21:20:58.719Z,4.50
2017-10-13T21:24:24.634Z,4.83
2017-10-13T21:27:50.056Z,3.63
2017-10-13T21:31:16.291Z,3.77
2017-10-13T21:34:42.042Z,4.30
2017-10-13T21:38:07.695Z,3.97
2017-10-13T21:41:33.498Z,3.70
2017-10-13T21:44:58.940Z,3.63
2017-10-13T21:48:26.283Z,3.30
2017-10-13T21:51:52.527Z,4.00
2017-10-13T21:55:18.150Z,4.87
2017-10-13T21:58:44.054Z,4.10
2017-10-13T22:02:09.984Z,3.80
2017-10-13T22:05:35.388Z,4.20
2017-10-13T22:09:00.924Z,3.50
2017-10-13T22:12:26.938Z,4.23
2017-10-13T22:15:52.292Z,3.40
2017-10-13T22:19:19.088Z,3.80
2017-10-13T22:22:44.733Z,3.70
2017-10-13T22:26:10.981Z,3.93
2017-10-13T22:29:38.288Z,4.17
2017-10-13T22:33:03.613Z,3.90
2017-10-13T22:36:29.037Z,4.37
2017-10-13T22:39:54.656Z,4.00
2017-10-13T22:43:20.540Z,3.87
2017-10-13T22:46:45.996Z,3.40
2017-10-13T22:50:11.658Z,3.80
2017-10-13T22:53:37.189Z,3.90
2017-10-13T22:57:03.585Z,4.37
2017-10-13T23:00:29.615Z,3.27
2017-10-13T23:03:55.186Z,3.57
2017-10-13T23:07:20.681Z,3.40
2017-10-13T23:10:47.219Z,3.33
2017-10-13T23:14:12.665Z,3.00
2017-10-13T23:17:37.938Z,3.10
2017-10-13T23:21:03.103Z,3.43
2017-10-13T23:24:28.581Z,4.37
2017-10-13T23:27:55.159Z,3.20
2017-10-13T23:31:20.850Z,2.80
2017-10-13T23:34:46.916Z,2.90
2017-10-13T23:38:12.886Z,3.20
2017-10-13T23:41:38.426Z,2.97
2017-10-13T23:45:04.165Z,2.70
2017-10-13T23:48:30.041Z,3.87
2017-10-13T23:51:55.700Z,3.07
2017-10-13T23:55:21.265Z,3.90
2017-10-13T23:58:46.994Z,3.70
